METAR Data
IDs: Format: Raw Decoded Include TAF

Data at: 1334 UTC 14 Dec 2019

PAGM 141256Z AUTO 12022G26KT 7SM -SN FEW009 SCT015 M01/M02 A2934 RMK AO2 PK WND 12027/1222 SNB09 SLP941 P0000 T10111022 FZRANO
PAGM 141246Z AUTO 12022KT 7SM -SN FEW007 BKN016 M01/M02 A2934 RMK AO2 PK WND 12027/1222 SNB09 P0000 FZRANO
PAGM 141156Z AUTO 12019G24KT 10SM OVC016 M01/M02 A2933 RMK AO2 SLP939 60000 T10061017 11006 21017 53008 FZRANO
PAGM 141132Z AUTO 11014KT 10SM BKN012 BKN017 OVC049 M01/M02 A2933 RMK AO2 FZRANO
PAGM 141114Z AUTO 12020KT 10SM SCT004 BKN016 OVC047 M01/M02 A2933 RMK AO2 FZRANO
PAGM 141056Z AUTO 12021KT 6SM BR OVC004 M01/M01 A2933 RMK AO2 UPE00SNB00E52 SLP937 P0000 T10061011 FZRANO
PAGM 140956Z AUTO 10013G19KT 3SM UP BR OVC004 M01/M02 A2931 RMK AO2 UPB34SNE34 SLP931 P0000 T10111017 FZRANO
PAGM 140950Z AUTO 09012G20KT 3SM UP BR BKN004 OVC013 M01/M02 A2931 RMK AO2 UPB34SNE34 P0000 FZRANO
PAGM 140920Z AUTO 10011G16KT 2 1/2SM -SN BR BKN006 OVC042 M01/M02 A2930 RMK AO2 VIS 1 3/4V5 P0000 FZRANO
PAGM 140856Z AUTO 12007KT 070V160 9SM -SN OVC004 M01/M02 A2931 RMK AO2 SLP931 P0000 60000 T10111017 410111028 53003 FZRANO
PAGM 140839Z AUTO 11010KT 9SM -SN OVC004 M01/M02 A2930 RMK AO2 P0000 FZRANO
PAGM 140805Z AUTO 09008KT 4SM -SN BR BKN006 OVC015 M01/M02 A2930 RMK AO2 CIG 004V010 P0000 FZRANO
PAGM 140756Z AUTO 07008KT 2 1/2SM -SN BR BKN006 OVC015 M01/M02 A2930 RMK AO2 CIG 004V010 SLP928 P0000 T10111017 FZRANO
PAGM 140752Z AUTO 07009KT 2 1/2SM -SN BR SCT006 BKN015 OVC023 M01/M02 A2930 RMK AO2 P0000 FZRANO
PAGM 140751Z AUTO 07010KT 2 1/2SM -SN BR BKN006 BKN015 OVC023 M01/M02 A2930 RMK AO2 P0000 FZRANO
PAGM 140742Z AUTO 07008KT 5SM -SN BR SCT006 BKN013 OVC025 M01/M02 A2930 RMK AO2 P0000 FZRANO
PAGM 140732Z AUTO 07009KT 4SM -SN BR SCT006 BKN015 OVC025 M01/M02 A2930 RMK AO2 P0000 FZRANO
PAGM 140656Z AUTO 08010KT 2SM -SN BR SCT007 BKN017 OVC026 M02/M02 A2930 RMK AO2 SLP927 P0000 T10171022 FZRANO
PAGM 140556Z AUTO 07008KT 6SM -SN BR OVC007 M02/M03 A2929 RMK AO2 SLP925 P0000 60000 T10171028 11017 21028 50002 FZRANO
PAGM 140456Z AUTO 06007KT 7SM -SN BKN007 OVC028 M02/M03 A2929 RMK AO2 SLP926 P0000 T10221028 FZRANO
PAGM 140453Z AUTO 07007KT 6SM -SN BR BKN007 OVC028 M02/M03 A2929 RMK AO2 P0000 FZRANO
PAGM 140443Z AUTO 07008KT 6SM -SN BR SCT007 OVC028 M02/M03 A2929 RMK AO2 P0000 FZRANO
PAGM 140419Z AUTO 07006KT 3SM -SN BR BKN007 BKN018 OVC026 M02/M03 A2929 RMK AO2 P0000 FZRANO
PAGM 140407Z AUTO 06007KT 2SM -SN BR BKN007 OVC020 M02/M03 A2928 RMK AO2 P0000 FZRANO
PAGM 140356Z AUTO 05010KT 2 1/2SM -SN BR FEW007 SCT017 OVC022 M02/M03 A2928 RMK AO2 SLP923 P0000 T10221033 FZRANO
PAGM 140319Z AUTO 06010KT 2 1/2SM -SN BR FEW007 BKN021 OVC028 M02/M03 A2927 RMK AO2 P0000 FZRANO
PAGM 140311Z AUTO 05009KT 3SM -SN BR FEW007 BKN016 OVC028 M02/M03 A2928 RMK AO2 P0000 FZRANO
PAGM 140300Z AUTO 05011KT 2SM -SN BR SCT009 BKN015 OVC023 M02/M03 A2928 RMK AO2 P0000 FZRANO
PAGM 140256Z AUTO 05010KT 1 3/4SM -SN BR SCT010 BKN016 OVC020 M02/M03 A2928 RMK AO2 SLP921 P0000 60000 T10221033 51002 FZRANO
PAGM 140242Z AUTO 05010KT 1 3/4SM -SN BR FEW006 BKN010 OVC020 M03/M03 A2928 RMK AO2 P0000 FZRANO
PAGM 140237Z AUTO 05011KT 2SM -SN BR FEW006 BKN014 OVC020 M03/M03 A2928 RMK AO2 P0000 FZRANO
PAGM 140226Z AUTO 05011KT 1 1/4SM -SN BR SCT006 BKN010 OVC016 M03/M04 A2928 RMK AO2 P0000 FZRANO
PAGM 140220Z AUTO 05011KT 3/4SM -SN BR SCT006 BKN010 OVC026 M03/M03 A2928 RMK AO2 P0000 FZRANO
PAGM 140212Z AUTO 04010KT 1/2SM -SN FZFG SCT006 BKN010 OVC026 M02/M03 A2928 RMK AO2 P0000 FZRANO
PAGM 140207Z AUTO 04010KT 3/4SM -SN BR SCT006 BKN021 OVC026 M02/M03 A2928 RMK AO2 P0000 FZRANO
PAGM 140204Z AUTO 05010KT 1 1/4SM -SN BR SCT007 BKN019 OVC026 M03/M03 A2928 RMK AO2 P0000 FZRANO
PAGM 140156Z AUTO 05010KT 1 1/2SM -SN BR FEW015 SCT022 OVC026 M03/M04 A2928 RMK AO2 SLP920 P0000 T10281039 FZRANO
PAGM 140153Z AUTO 06011KT 1 1/4SM -SN BR FEW009 BKN022 OVC026 M03/M04 A2927 RMK AO2 P0000 FZRANO
PAGM 140136Z AUTO 04011KT 1SM -SN BR SCT007 BKN015 OVC029 M02/M03 A2928 RMK AO2 P0000 FZRANO
PAGM 140123Z AUTO 04011KT 1SM -SN BR BKN007 BKN015 OVC029 M02/M03 A2928 RMK AO2 CIG 006V011 P0000 FZRANO
PAGM 140118Z AUTO 04011KT 2SM -SN BR SCT007 BKN015 OVC037 M02/M03 A2928 RMK AO2 CIG 011V022 P0000 FZRANO
PAGM 140111Z AUTO 05012KT 2 1/2SM -SN BR SCT011 BKN030 OVC039 M02/M03 A2927 RMK AO2 P0000 FZRANO
PAGM 140106Z AUTO 05013KT 2 1/2SM -SN BR BKN012 BKN030 OVC048 M02/M03 A2927 RMK AO2 P0000 FZRANO
PAGM 140056Z AUTO 04012KT 7SM -SN BKN010 BKN040 OVC047 M02/M04 A2927 RMK AO2 SLP919 P0000 T10221039 FZRANO
PAGM 140045Z AUTO 04014KT 9SM -SN OVC010 M02/M04 A2927 RMK AO2 CIG 006V013 P0000 FZRANO
PAGM 140014Z AUTO 04014KT 3SM -SN BR BKN008 OVC055 M02/M03 A2927 RMK AO2 CIG 006V011 P0000 FZRANO
PAGM 140006Z AUTO 04013KT 2 1/2SM -SN BR FEW008 OVC055 M02/M04 A2927 RMK AO2 VIS 2V3 P0000 FZRANO
PAGM 132356Z AUTO 04015KT 5SM -SN BR FEW010 OVC055 M02/M04 A2927 RMK AO2 SLP920 P0000 60000 T10221039 11017 21022 58005 FZRANO
PAGM 132343Z AUTO 04014KT 5SM -SN BR SCT013 OVC060 M02/M04 A2928 RMK AO2 P0000 FZRANO
PAGM 132256Z AUTO 04013KT 10SM -SN OVC011 M02/M04 A2929 RMK AO2 SLP923 P0000 T10171039 FZRANO
PAGM 132207Z AUTO 03012KT 9SM -SN OVC011 M02/M03 A2929 RMK AO2 P0000 FZRANO
PAGM 132156Z AUTO 04014KT 6SM -SN BR BKN009 OVC014 M02/M03 A2929 RMK AO2 SNB2058 CIG 007V012 SLP924 P0000 T10171028 FZRANO
PAGM 132138Z AUTO 04014KT 4SM -SN BR BKN009 OVC014 M02/M03 A2928 RMK AO2 SNB2058 CIG 007V013 P0000 FZRANO
PAGM 132056Z AUTO 04011KT 10SM OVC012 M02/M03 A2929 RMK AO2 SLP925 60000 T10171028 53001 FZRANO
PAGM 131956Z AUTO 04012KT 10SM OVC010 M02/M03 A2928 RMK AO2 SLP922 T10171033 FZRANO
PAGM 131856Z AUTO 05012KT 10SM OVC010 M02/M03 A2928 RMK AO2 SNE22 SLP923 P0000 T10171033 FZRANO
PAGM 131756Z AUTO 05014KT 9SM -SN OVC010 M02/M03 A2929 RMK AO2 SLP923 P0000 60000 T10171028 11011 21017 54000 FZRANO
PAGM 131742Z AUTO 05015KT 9SM -SN OVC010 M02/M03 A2929 RMK AO2 P0000 FZRANO
PAGM 131613Z AUTO 05016KT 8SM -SN OVC008 M02/M03 A2928 RMK AO2 P0000 FZRANO
PAGM 131556Z AUTO 05015KT 9SM -SN BKN010 OVC035 M02/M03 A2929 RMK AO2 SLP923 P0000 T10171028 FZRANO
PAGM 131456Z AUTO 04016KT 9SM -SN BKN010 OVC034 M02/M03 A2929 RMK AO2 SLP923 P0000 60000 T10171028 56007 FZRANO
PAGM 131356Z AUTO 05016KT 9SM -SN BKN010 OVC044 M01/M03 A2929 RMK AO2 SLP925 P0000 T10111028 FZRANO
PAGM 131323Z AUTO 06020KT 9SM -SN BKN010 OVC044 M01/M03 A2928 RMK AO2 P0000 FZRANO
PAGM 131256Z AUTO 05016KT 7SM -SN SCT012 BKN032 OVC060 M01/M03 A2930 RMK AO2 SLP928 P0000 T10111028 FZRANO
PAGM 131234Z AUTO 06017KT 8SM -SN SCT012 OVC032 M02/M03 A2930 RMK AO2 P0000 FZRANO
PAGM 131156Z AUTO 05017KT 4SM -SN BR OVC012 M01/M03 A2931 RMK AO2 SNE11B34 SLP931 P0000 60000 T10111028 11011 21017 56009 FZRANO
PAGM 131056Z AUTO 06016KT 9SM -SN BKN012 BKN060 OVC070 M01/M03 A2931 RMK AO2 SLP932 P0000 T10111028 FZRANO
PAGM 131003Z AUTO 06018KT 9SM -SN SCT014 OVC055 M01/M03 A2932 RMK AO2 P0000 FZRANO
PAGM 130956Z AUTO 06018KT 10SM -SN BKN014 OVC060 M01/M03 A2932 RMK AO2 SNB52 SLP935 P0000 T10111033 FZRANO
PAGM 130904Z AUTO 06015KT 10SM BKN014 OVC075 M01/M03 A2934 RMK AO2 FZRANO
PAGM 130856Z AUTO 06015KT 10SM BKN016 OVC080 M01/M03 A2933 RMK AO2 SLP940 T10111033 410061017 55002 FZRANO
PAGM 130756Z AUTO 06018KT 10SM BKN016 OVC050 M01/M04 A2932 RMK AO2 SLP935 T10111039 FZRANO
PAGM 130656Z AUTO 06017G22KT 10SM BKN012 OVC055 M02/M03 A2933 RMK AO2 SLP937 T10171033 FZRANO
PAGM 130556Z AUTO 06016KT 10SM OVC012 M02/M03 A2934 RMK AO2 SLP942 T10171033 11006 21017 53003 FZRANO
PAGM 130456Z AUTO 06017KT 10SM OVC012 M01/M03 A2933 RMK AO2 SLP939 T10111028 FZRANO
PAGM 130356Z AUTO 06017KT 10SM OVC012 M01/M03 A2934 RMK AO2 SLP941 T10111028 FZRANO
PAGM 130256Z AUTO 06016KT 10SM OVC014 M01/M03 A2933 RMK AO2 SLP939 T10111033 56007 FZRANO
PAGM 130213Z AUTO 06016KT 10SM BKN014 OVC090 M01/M03 A2934 RMK AO2 FZRANO
PAGM 130156Z AUTO 05013KT 10SM OVC090 M01/M03 A2934 RMK AO2 SLP940 T10111028 FZRANO